createdAt,value
2023-04-12T00:01:16.145Z,97890.13486406767
2023-04-12T00:04:16.852Z,97888.37805497814
2023-04-12T00:07:18.761Z,97884.67259810187
2023-04-12T00:11:16.442Z,97867.89389865762
2023-04-12T00:14:16.671Z,97859.49960968982
2023-04-12T00:17:16.875Z,97856.76081491823
2023-04-12T00:21:19.956Z,97853.48392668621
2023-04-12T00:24:16.840Z,97843.4055945724
2023-04-12T00:27:16.780Z,97836.02300452307
2023-04-12T00:31:16.296Z,97827.67551818398
2023-04-12T00:34:17.772Z,97824.34651979408
2023-04-12T00:37:16.400Z,97818.70825431265
2023-04-12T00:41:17.294Z,97816.25900680218
2023-04-12T00:44:18.394Z,97804.94009708725
2023-04-12T00:47:16.589Z,97807.184336039
2023-04-12T00:51:18.475Z,97814.07194329161
2023-04-12T00:54:18.415Z,97809.04073291266
2023-04-12T00:57:17.053Z,97805.46722968051
2023-04-12T01:01:17.433Z,97802.01066958623
2023-04-12T01:04:16.537Z,97801.42253324049
2023-04-12T01:07:24.610Z,97791.92561711594
2023-04-12T01:11:24.855Z,97792.3809181716
2023-04-12T01:14:27.621Z,97798.47812697352
2023-04-12T01:17:22.072Z,97792.54066220534
2023-04-12T01:21:24.185Z,97786.62629263358
2023-04-12T01:24:28.747Z,97778.80105657548
2023-04-12T01:27:32.359Z,97774.40595675517
2023-04-12T01:31:18.748Z,97773.30383433033
2023-04-12T01:34:18.211Z,97772.8206040745
2023-04-12T01:37:21.803Z,97774.79179427697
2023-04-12T01:41:17.162Z,97776.78114565898
2023-04-12T01:44:17.582Z,97774.37539194821
2023-04-12T01:47:16.781Z,97769.06154970199
2023-04-12T01:51:25.258Z,97756.08356230237
2023-04-12T01:54:21.338Z,97758.3421624996
2023-04-12T01:57:18.021Z,97755.30494123409
2023-04-12T02:01:17.579Z,97752.09511850077
2023-04-12T02:04:17.857Z,97761.08680844883
2023-04-12T02:07:17.304Z,97757.53688886823
2023-04-12T02:11:16.265Z,97760.96230440674
2023-04-12T02:14:16.634Z,97764.93184743212
2023-04-12T02:17:16.649Z,97769.06720518057
2023-04-12T02:21:16.822Z,97757.54434938385
2023-04-12T02:24:16.746Z,97757.90282139846
2023-04-12T02:27:19.037Z,97760.12395912522
2023-04-12T02:31:17.426Z,97753.62821274136
2023-04-12T02:34:18.512Z,97757.37730735075
2023-04-12T02:37:18.059Z,97757.4243581728
2023-04-12T02:41:17.449Z,97754.76347610496
2023-04-12T02:44:16.558Z,97755.25352055309
2023-04-12T02:47:16.354Z,97754.31158583311
2023-04-12T02:51:16.600Z,97749.17558903701
2023-04-12T02:54:17.196Z,97746.78945801072
2023-04-12T02:57:16.900Z,97746.55775283044
2023-04-12T03:01:17.225Z,97752.10934689909
2023-04-12T03:04:17.221Z,97750.98266083207
2023-04-12T03:07:17.293Z,97746.96034052304
2023-04-12T03:11:16.606Z,97745.2577929879
2023-04-12T03:14:17.344Z,97743.72412823714
2023-04-12T03:17:16.965Z,97744.34623583822
2023-04-12T03:21:17.195Z,97740.85845741209
2023-04-12T03:24:17.163Z,97739.61855606992
2023-04-12T03:27:16.950Z,97749.28271130896
2023-04-12T03:31:21.798Z,97739.78664878078
2023-04-12T03:34:17.153Z,97738.99191925298
2023-04-12T03:37:16.492Z,97734.15133625039
2023-04-12T03:41:16.083Z,97728.070982918
2023-04-12T03:44:16.674Z,97732.43934277893
2023-04-12T03:47:16.746Z,97733.20673075368
2023-04-12T03:51:16.937Z,97731.39943610987
2023-04-12T03:54:17.144Z,97736.55802784162
2023-04-12T03:57:17.073Z,97741.74834663045
2023-04-12T04:01:18.134Z,97750.79947398939
2023-04-12T04:04:17.361Z,97749.58257125631
2023-04-12T04:07:17.173Z,97741.8021292097
2023-04-12T04:11:16.710Z,97733.31077114637
2023-04-12T04:14:16.942Z,97729.85093824573
2023-04-12T04:17:16.965Z,97730.40954434387
2023-04-12T04:21:16.979Z,97729.91909843164
2023-04-12T04:24:19.002Z,97726.54050728065
2023-04-12T04:27:17.198Z,97734.03780931351
2023-04-12T04:31:18.142Z,97729.53306918469
2023-04-12T04:34:17.028Z,97737.64343545357
2023-04-12T04:37:17.610Z,97741.83466563177
2023-04-12T04:41:17.852Z,97749.4933750009
2023-04-12T04:44:16.391Z,97744.52168863978
2023-04-12T04:47:16.725Z,97741.62056817493
2023-04-12T04:51:16.546Z,97738.05284019418
2023-04-12T04:54:17.169Z,97744.95918941758
2023-04-12T04:57:17.010Z,97738.463839856
2023-04-12T05:01:17.226Z,97739.66830914267
2023-04-12T05:04:16.806Z,97731.9849640888
2023-04-12T05:07:16.932Z,97732.82955092943
2023-04-12T05:11:16.731Z,97734.90946741108
2023-04-12T05:14:17.297Z,97733.3866427514
2023-04-12T05:17:17.199Z,97728.76922804187
2023-04-12T05:21:16.463Z,97720.48882840715
2023-04-12T05:24:16.954Z,97716.50766280768
2023-04-12T05:27:17.144Z,97716.64291051167
2023-04-12T05:31:16.622Z,97716.1240382233
2023-04-12T05:34:16.822Z,97711.6210253203
2023-04-12T05:37:16.677Z,97709.36807092553
2023-04-12T05:41:16.076Z,97718.08478735233
2023-04-12T05:44:16.297Z,97717.0175689162
2023-04-12T05:47:16.374Z,97725.28724859255
2023-04-12T05:51:18.194Z,97719.78460149605
2023-04-12T05:54:21.108Z,97716.80989052438
2023-04-12T05:57:17.962Z,97715.74505553885
2023-04-12T06:01:17.178Z,97718.59391583769
2023-04-12T06:04:17.118Z,97712.52274332527
2023-04-12T06:07:18.092Z,97704.34796374614
2023-04-12T06:11:16.759Z,97701.54917707577
2023-04-12T06:14:16.270Z,97694.94621909526
2023-04-12T06:17:16.315Z,97685.60887889688
2023-04-12T06:21:17.174Z,97687.59922486836
2023-04-12T06:24:17.108Z,97691.07165842822
2023-04-12T06:27:16.973Z,97687.55409244029
2023-04-12T06:31:16.411Z,97689.58337710534
2023-04-12T06:34:16.799Z,97685.72662530745
2023-04-12T06:37:16.664Z,97690.67719144456
2023-04-12T06:41:16.316Z,97692.97871712004
2023-04-12T06:44:16.756Z,97694.87043767974
2023-04-12T06:47:16.981Z,97686.08193992478
2023-04-12T06:51:16.269Z,97674.11475875031
2023-04-12T06:54:17.038Z,97673.98428416788
2023-04-12T06:57:16.699Z,97674.63406165002
2023-04-12T07:01:18.312Z,97679.68068905201
2023-04-12T07:04:17.536Z,97681.2499421343
2023-04-12T07:07:17.416Z,97686.10765050192
2023-04-12T07:11:21.285Z,97688.88360613171
2023-04-12T07:14:16.398Z,97685.72630359288
2023-04-12T07:17:16.424Z,97677.58369476881
2023-04-12T07:21:18.045Z,97683.6771090707
2023-04-12T07:24:16.808Z,97685.75520060072
2023-04-12T07:27:16.647Z,97681.81429819568
2023-04-12T07:31:16.756Z,97680.6014740292
2023-04-12T07:34:17.288Z,97690.25096918369
2023-04-12T07:37:18.057Z,97693.94978646735
2023-04-12T07:41:18.691Z,97694.79272518029
2023-04-12T07:44:17.321Z,97695.39512275108
2023-04-12T07:47:17.245Z,97694.18740729454
2023-04-12T07:51:16.718Z,97694.99319212636
2023-04-12T07:54:17.113Z,97691.49754803196
2023-04-12T07:57:17.037Z,97694.74187870542
2023-04-12T08:01:16.359Z,97692.17346118475
2023-04-12T08:04:16.474Z,97686.97689147851
2023-04-12T08:07:16.642Z,97684.69093406496
2023-04-12T08:11:16.390Z,97669.71564057414
2023-04-12T08:14:16.560Z,97666.56683671965
2023-04-12T08:17:17.187Z,97653.03375560691
2023-04-12T08:21:16.270Z,97650.92499969086
2023-04-12T08:24:16.571Z,97655.29307041006
2023-04-12T08:27:16.820Z,97647.49617534193
2023-04-12T08:31:16.567Z,97639.8828348128
2023-04-12T08:34:17.106Z,97633.15076172494
2023-04-12T08:37:17.460Z,97638.00680754527
2023-04-12T08:41:17.291Z,97634.30589038983
2023-04-12T08:44:17.858Z,97634.61588042763
2023-04-12T08:47:17.381Z,97626.3940968605
2023-04-12T08:51:18.767Z,97624.24259262846
2023-04-12T08:54:16.952Z,97621.67318064651
2023-04-12T08:57:17.994Z,97626.23654403856
2023-04-12T09:01:19.776Z,97631.62736048336
2023-04-12T09:04:17.221Z,97640.97536867356
2023-04-12T09:07:17.345Z,97632.86238203521
2023-04-12T09:11:25.066Z,97636.51681862069
2023-04-12T09:14:22.010Z,97636.89155985128
2023-04-12T09:17:26.161Z,97631.88869795168
2023-04-12T09:21:17.344Z,97632.98543308637
2023-04-12T09:24:16.367Z,97633.56521643298
2023-04-12T09:27:16.772Z,97633.72457730184
2023-04-12T09:31:16.440Z,97639.70735109501
2023-04-12T09:34:16.708Z,97635.8275193022
2023-04-12T09:37:16.965Z,97636.25828684958
2023-04-12T09:41:20.846Z,97639.56405489099
2023-04-12T09:44:28.364Z,97641.28977308082
2023-04-12T09:47:17.050Z,97629.55687334803
2023-04-12T09:51:24.440Z,97624.4803483603
2023-04-12T09:54:17.285Z,97626.21496282524
2023-04-12T09:57:17.822Z,97618.57904574859
2023-04-12T10:01:17.832Z,97603.02981618329
2023-04-12T10:04:18.866Z,97602.82404450295
2023-04-12T10:07:17.810Z,97597.62078507332
2023-04-12T10:11:17.266Z,97594.01222119521
2023-04-12T10:14:20.372Z,97594.82258561932
2023-04-12T10:17:19.508Z,97596.86780514795
2023-04-12T10:21:17.653Z,97586.23013046823
2023-04-12T10:24:20.265Z,97583.08886248361
2023-04-12T10:27:24.526Z,97580.88627768228
2023-04-12T10:31:27.866Z,97582.94043235148
2023-04-12T10:34:17.182Z,97582.22862926847
2023-04-12T10:37:17.046Z,97581.1212630324
2023-04-12T10:41:18.180Z,97574.90285426892
2023-04-12T10:44:24.611Z,97571.80276368282
2023-04-12T10:47:55.686Z,97575.54498706786
2023-04-12T10:51:19.195Z,97572.60548061888
2023-04-12T10:54:32.928Z,97572.67047954572
2023-04-12T10:57:49.150Z,97574.75428176769
2023-04-12T11:01:18.933Z,97562.19147385588
2023-04-12T11:04:18.847Z,97555.32814796231
2023-04-12T11:07:17.149Z,97554.89035056194
2023-04-12T11:11:20.264Z,97543.06725146424
2023-04-12T11:14:17.669Z,97542.0107068825
2023-04-12T11:17:25.447Z,97536.9376191308
2023-04-12T11:21:17.665Z,97541.34802349034
2023-04-12T11:24:16.808Z,97542.78619005994
2023-04-12T11:27:17.929Z,97549.7764807955
2023-04-12T11:31:19.938Z,97544.67753622371
2023-04-12T11:34:17.009Z,97540.37912344816
2023-04-12T11:37:19.123Z,97529.25432051563
2023-04-12T11:41:17.089Z,97530.57945997623
2023-04-12T11:44:19.844Z,97535.32896848134
2023-04-12T11:47:18.437Z,97529.13837216132
2023-04-12T11:51:20.420Z,97526.11378474742
2023-04-12T11:54:16.736Z,97524.11748496398
2023-04-12T11:57:18.216Z,97523.04607481328
2023-04-12T12:01:17.990Z,97522.99249656188
2023-04-12T12:04:17.184Z,97528.24800919018
2023-04-12T12:11:17.075Z,97516.12719960469
2023-04-12T12:14:19.160Z,97508.7974035783
2023-04-12T12:17:16.802Z,97514.39616377362
2023-04-12T12:21:17.107Z,97513.46809603661
2023-04-12T12:24:17.080Z,97513.07971180789
2023-04-12T12:27:19.109Z,97503.46882377999
2023-04-12T12:31:19.147Z,97496.87847383096
2023-04-12T12:34:19.743Z,97500.97508015369
2023-04-12T12:37:22.070Z,97500.30547652455
2023-04-12T12:41:17.382Z,97490.32687632964
2023-04-12T12:44:16.578Z,97490.08413468844
2023-04-12T12:47:16.657Z,97482.5173713513
2023-04-12T12:51:18.067Z,97481.61870328513
2023-04-12T12:54:25.126Z,97473.0493108274
2023-04-12T12:57:16.849Z,97471.45186499502
2023-04-12T13:01:16.625Z,97463.99807611069
2023-04-12T13:04:17.111Z,97459.16459395425
2023-04-12T13:07:17.019Z,97463.36951370355
2023-04-12T13:11:17.175Z,97460.44801308213
2023-04-12T13:14:16.089Z,97449.06504931461
2023-04-12T13:17:16.096Z,97447.27290140622
2023-04-12T13:21:16.111Z,97437.82548646466
2023-04-12T13:24:16.382Z,97434.88730873079
2023-04-12T13:27:16.760Z,97439.98253446339
2023-04-12T13:31:16.372Z,97441.33841292904
2023-04-12T13:34:16.504Z,97436.52981635614
2023-04-12T13:37:16.470Z,97428.84959054024
2023-04-12T13:41:15.855Z,97423.7232810865
2023-04-12T13:44:16.412Z,97413.66254764564
2023-04-12T13:47:16.766Z,97412.10602907954
2023-04-12T13:51:16.842Z,97419.12095586922
2023-04-12T13:54:17.588Z,97413.49360568546
2023-04-12T13:57:16.839Z,97415.93442968176
2023-04-12T14:01:17.256Z,97415.51709520153
2023-04-12T14:04:16.784Z,97416.18651276299
2023-04-12T14:07:16.508Z,97404.76524464214
2023-04-12T14:11:16.453Z,97410.07714891844
2023-04-12T14:14:17.151Z,97405.71426200145
2023-04-12T14:17:16.952Z,97403.45006481251
2023-04-12T14:21:16.883Z,97398.2617834246
2023-04-12T14:24:18.071Z,97390.58291188856
2023-04-12T14:27:18.049Z,97388.6701097896
2023-04-12T14:31:16.727Z,97389.45110202747
2023-04-12T14:34:16.778Z,97383.69567807701
2023-04-12T14:37:16.854Z,97373.98486657877
2023-04-12T14:41:17.089Z,97379.17002862753
2023-04-12T14:44:17.570Z,97375.7217440591
2023-04-12T14:47:16.971Z,97375.36083307583
2023-04-12T14:51:17.215Z,97373.78520228014
2023-04-12T14:54:16.734Z,97373.3608075418
2023-04-12T14:57:17.614Z,97377.53439724846
2023-04-12T15:01:18.411Z,97377.0873842307
2023-04-12T15:04:17.286Z,97384.57091304971
2023-04-12T15:07:16.981Z,97377.13772053168
2023-04-12T15:11:19.598Z,97366.64109387847
2023-04-12T15:14:18.015Z,97378.92211535311
2023-04-12T15:17:17.068Z,97372.96075637419
2023-04-12T15:21:16.340Z,97370.3544855927
2023-04-12T15:24:16.743Z,97363.77146584641
2023-04-12T15:27:16.645Z,97370.19116932809
2023-04-12T15:31:16.170Z,97366.55295038247
2023-04-12T15:34:16.894Z,97367.69526137554
2023-04-12T15:37:16.884Z,97358.95288762798
2023-04-12T15:41:15.813Z,97353.15702767321
2023-04-12T15:44:16.155Z,97348.13260957303
2023-04-12T15:47:16.260Z,97357.20268821374
2023-04-12T15:51:15.874Z,97354.16935196605
2023-04-12T15:54:16.524Z,97352.15578600744
2023-04-12T15:57:16.665Z,97351.72706326187
2023-04-12T16:01:17.277Z,97356.79451607275
2023-04-12T16:04:17.245Z,97361.35380045623
2023-04-12T16:07:16.922Z,97354.99971431984
2023-04-12T16:11:16.903Z,97343.89627907384
2023-04-12T16:14:16.355Z,97347.4815095409
2023-04-12T16:17:16.319Z,97346.19719504839
2023-04-12T16:21:18.327Z,97357.1127965914
2023-04-12T16:24:16.291Z,97356.16356011426
2023-04-12T16:27:16.060Z,97363.39947369193
2023-04-12T16:31:16.921Z,97360.02441870268
2023-04-12T16:34:21.806Z,97367.03862950476
2023-04-12T16:37:17.757Z,97361.71252020593
2023-04-12T16:41:17.346Z,97380.3933075699
2023-04-12T16:44:30.399Z,97369.6668466915
2023-04-12T16:47:16.995Z,97370.94493728671
2023-04-12T16:51:17.420Z,97386.29498108846
2023-04-12T16:54:17.998Z,97378.99362295758
2023-04-12T16:57:18.687Z,97379.13852706044
2023-04-12T17:01:17.262Z,97381.0992131912
2023-04-12T17:04:18.981Z,97379.13149073815
2023-04-12T17:07:17.762Z,97371.97943435774
2023-04-12T17:11:17.551Z,97369.78754106726
2023-04-12T17:14:16.655Z,97371.00527793943
2023-04-12T17:17:16.337Z,97360.90594500805
2023-04-12T17:21:19.094Z,97360.9229595719
2023-04-12T17:24:17.234Z,97365.18199401948
2023-04-12T17:27:18.396Z,97364.29944373536
2023-04-12T17:31:21.765Z,97373.45624137402
2023-04-12T17:34:18.369Z,97381.07979972882
2023-04-12T17:37:18.072Z,97383.5307760304
2023-04-12T17:41:16.279Z,97383.18710698852
2023-04-12T17:44:16.782Z,97391.72199471734
2023-04-12T17:47:16.739Z,97386.83845807631
2023-04-12T17:51:16.466Z,97398.43455633397
2023-04-12T17:54:16.426Z,97396.13526949451
2023-04-12T17:57:16.633Z,97394.53270065445
2023-04-12T18:01:17.160Z,97398.12664355813
2023-04-12T18:04:17.125Z,97403.2910754613
2023-04-12T18:07:16.829Z,97409.4419839756
2023-04-12T18:11:15.633Z,97411.1006482062
2023-04-12T18:14:16.407Z,97414.11030345691
2023-04-12T18:17:15.960Z,97414.76467721538
2023-04-12T18:21:21.137Z,97428.07053452835
2023-04-12T18:24:17.422Z,97433.93801979774
2023-04-12T18:27:16.806Z,97446.18656614491
2023-04-12T18:31:16.156Z,97448.30035487625
2023-04-12T18:34:19.014Z,97447.73236768
2023-04-12T18:37:16.326Z,97449.30690858241
2023-04-12T18:41:16.313Z,97453.9595521633
2023-04-12T18:44:19.318Z,97454.87652992255
2023-04-12T18:47:16.753Z,97452.11323917392
2023-04-12T18:51:16.604Z,97449.1423862427
2023-04-12T18:54:17.544Z,97450.16340699798
2023-04-12T18:57:16.781Z,97449.82465685328
2023-04-12T19:01:16.417Z,97446.60138707791
2023-04-12T19:04:16.880Z,97439.80356066354
2023-04-12T19:07:17.334Z,97445.20322735193
2023-04-12T19:11:17.364Z,97443.94172673162
2023-04-12T19:14:17.180Z,97446.10196117149
2023-04-12T19:17:22.477Z,97453.05992014571
2023-04-12T19:21:20.851Z,97444.94426174393
2023-04-12T19:24:18.241Z,97446.56027758944
2023-04-12T19:27:26.021Z,97448.95800236941
2023-04-12T19:31:17.346Z,97443.47755073423
2023-04-12T19:34:18.077Z,97441.30171220888
2023-04-12T19:37:18.120Z,97439.41968590747
2023-04-12T19:41:20.548Z,97440.00328974052
2023-04-12T19:44:21.214Z,97440.75291912946
2023-04-12T19:47:23.141Z,97437.17689208883
2023-04-12T19:51:17.218Z,97441.26449164482
2023-04-12T19:54:27.865Z,97435.02018380104
2023-04-12T19:57:21.345Z,97431.02841177965
2023-04-12T20:01:20.441Z,97434.77921803159
2023-04-12T20:04:19.636Z,97437.68370056048
2023-04-12T20:07:16.716Z,97425.78077721872
